sensor_id;sensor_type;location;lat;lon;timestamp;temperature;humidity
76263;DHT22;65080;50.908;6.916;2023-04-24T00:00:38;14.00;60.70
76263;DHT22;65080;50.908;6.916;2023-04-24T00:03:07;14.00;60.90
76263;DHT22;65080;50.908;6.916;2023-04-24T00:05:37;13.90;60.90
76263;DHT22;65080;50.908;6.916;2023-04-24T00:08:07;13.90;60.90
76263;DHT22;65080;50.908;6.916;2023-04-24T00:10:35;13.90;61.00
76263;DHT22;65080;50.908;6.916;2023-04-24T00:13:04;13.90;61.20
76263;DHT22;65080;50.908;6.916;2023-04-24T00:15:32;13.90;61.20
76263;DHT22;65080;50.908;6.916;2023-04-24T00:18:01;14.00;61.30
76263;DHT22;65080;50.908;6.916;2023-04-24T00:20:29;13.90;61.20
76263;DHT22;65080;50.908;6.916;2023-04-24T00:23:00;14.00;61.30
76263;DHT22;65080;50.908;6.916;2023-04-24T00:25:29;14.10;61.30
76263;DHT22;65080;50.908;6.916;2023-04-24T00:27:57;14.00;61.20
76263;DHT22;65080;50.908;6.916;2023-04-24T00:30:25;14.00;61.20
76263;DHT22;65080;50.908;6.916;2023-04-24T00:32:53;14.00;61.30
76263;DHT22;65080;50.908;6.916;2023-04-24T00:35:22;13.90;61.00
76263;DHT22;65080;50.908;6.916;2023-04-24T00:37:50;13.90;61.00
76263;DHT22;65080;50.908;6.916;2023-04-24T00:40:19;13.90;61.10
76263;DHT22;65080;50.908;6.916;2023-04-24T00:42:48;13.90;61.00
76263;DHT22;65080;50.908;6.916;2023-04-24T00:45:17;13.70;60.60
76263;DHT22;65080;50.908;6.916;2023-04-24T00:47:45;13.60;60.50
76263;DHT22;65080;50.908;6.916;2023-04-24T00:50:15;13.60;60.40
76263;DHT22;65080;50.908;6.916;2023-04-24T00:52:44;13.60;60.30
76263;DHT22;65080;50.908;6.916;2023-04-24T00:55:12;13.60;60.10
76263;DHT22;65080;50.908;6.916;2023-04-24T00:57:42;13.50;59.90
76263;DHT22;65080;50.908;6.916;2023-04-24T01:00:11;13.50;59.80
76263;DHT22;65080;50.908;6.916;2023-04-24T01:02:40;13.40;59.80
76263;DHT22;65080;50.908;6.916;2023-04-24T01:05:11;13.40;59.80
76263;DHT22;65080;50.908;6.916;2023-04-24T01:07:41;13.40;59.50
76263;DHT22;65080;50.908;6.916;2023-04-24T01:10:13;13.30;59.40
76263;DHT22;65080;50.908;6.916;2023-04-24T01:12:43;13.30;59.30
76263;DHT22;65080;50.908;6.916;2023-04-24T01:15:12;13.20;59.00
76263;DHT22;65080;50.908;6.916;2023-04-24T01:17:40;13.20;58.90
76263;DHT22;65080;50.908;6.916;2023-04-24T01:20:09;13.20;58.50
76263;DHT22;65080;50.908;6.916;2023-04-24T01:22:40;13.10;58.40
76263;DHT22;65080;50.908;6.916;2023-04-24T01:25:09;13.10;58.40
76263;DHT22;65080;50.908;6.916;2023-04-24T01:27:37;13.10;58.20
76263;DHT22;65080;50.908;6.916;2023-04-24T01:30:07;13.00;58.00
76263;DHT22;65080;50.908;6.916;2023-04-24T01:32:36;13.00;57.90
76263;DHT22;65080;50.908;6.916;2023-04-24T01:35:06;12.90;57.90
76263;DHT22;65080;50.908;6.916;2023-04-24T01:37:35;12.90;57.80
76263;DHT22;65080;50.908;6.916;2023-04-24T01:40:07;12.90;57.80
76263;DHT22;65080;50.908;6.916;2023-04-24T01:42:35;12.80;57.80
76263;DHT22;65080;50.908;6.916;2023-04-24T01:45:05;12.80;57.90
76263;DHT22;65080;50.908;6.916;2023-04-24T01:47:33;12.80;57.90
76263;DHT22;65080;50.908;6.916;2023-04-24T01:50:02;12.90;58.00
76263;DHT22;65080;50.908;6.916;2023-04-24T01:52:33;12.70;57.70
76263;DHT22;65080;50.908;6.916;2023-04-24T01:55:04;12.70;57.80
76263;DHT22;65080;50.908;6.916;2023-04-24T01:57:34;12.60;57.70
76263;DHT22;65080;50.908;6.916;2023-04-24T02:00:04;12.60;58.00
76263;DHT22;65080;50.908;6.916;2023-04-24T02:02:33;12.50;57.90
76263;DHT22;65080;50.908;6.916;2023-04-24T02:05:02;12.50;58.00
76263;DHT22;65080;50.908;6.916;2023-04-24T02:07:30;12.40;58.00
76263;DHT22;65080;50.908;6.916;2023-04-24T02:09:59;12.40;58.10
76263;DHT22;65080;50.908;6.916;2023-04-24T02:12:28;12.30;58.10
76263;DHT22;65080;50.908;6.916;2023-04-24T02:14:57;12.20;58.10
76263;DHT22;65080;50.908;6.916;2023-04-24T02:17:26;12.10;58.00
76263;DHT22;65080;50.908;6.916;2023-04-24T02:19:54;12.00;58.10
76263;DHT22;65080;50.908;6.916;2023-04-24T02:22:22;11.90;58.10
76263;DHT22;65080;50.908;6.916;2023-04-24T02:24:51;11.80;58.30
76263;DHT22;65080;50.908;6.916;2023-04-24T02:27:19;11.70;58.50
76263;DHT22;65080;50.908;6.916;2023-04-24T02:29:47;11.70;58.60
76263;DHT22;65080;50.908;6.916;2023-04-24T02:32:17;11.70;58.80
76263;DHT22;65080;50.908;6.916;2023-04-24T02:34:45;11.50;58.90
76263;DHT22;65080;50.908;6.916;2023-04-24T02:37:13;11.50;59.00
76263;DHT22;65080;50.908;6.916;2023-04-24T02:39:42;11.50;59.20
76263;DHT22;65080;50.908;6.916;2023-04-24T02:42:10;11.50;59.20
76263;DHT22;65080;50.908;6.916;2023-04-24T02:44:39;11.50;59.40
76263;DHT22;65080;50.908;6.916;2023-04-24T02:47:07;11.40;59.30
76263;DHT22;65080;50.908;6.916;2023-04-24T02:49:37;11.40;59.40
76263;DHT22;65080;50.908;6.916;2023-04-24T02:52:05;11.50;59.60
76263;DHT22;65080;50.908;6.916;2023-04-24T02:54:33;11.40;59.60
76263;DHT22;65080;50.908;6.916;2023-04-24T02:57:02;11.40;59.60
76263;DHT22;65080;50.908;6.916;2023-04-24T02:59:30;11.40;59.60
76263;DHT22;65080;50.908;6.916;2023-04-24T03:01:58;11.40;59.70
76263;DHT22;65080;50.908;6.916;2023-04-24T03:04:28;11.40;59.70
76263;DHT22;65080;50.908;6.916;2023-04-24T03:06:58;11.40;59.70
76263;DHT22;65080;50.908;6.916;2023-04-24T03:09:26;11.40;59.60
76263;DHT22;65080;50.908;6.916;2023-04-24T03:11:54;11.40;59.60
76263;DHT22;65080;50.908;6.916;2023-04-24T03:14:23;11.40;59.70
76263;DHT22;65080;50.908;6.916;2023-04-24T03:16:51;11.40;59.50
76263;DHT22;65080;50.908;6.916;2023-04-24T03:19:20;11.40;59.60
76263;DHT22;65080;50.908;6.916;2023-04-24T03:21:48;11.40;59.60
76263;DHT22;65080;50.908;6.916;2023-04-24T03:24:18;11.40;59.50
76263;DHT22;65080;50.908;6.916;2023-04-24T03:26:47;11.40;59.50
76263;DHT22;65080;50.908;6.916;2023-04-24T03:29:15;11.40;59.60
76263;DHT22;65080;50.908;6.916;2023-04-24T03:31:44;11.40;59.70
76263;DHT22;65080;50.908;6.916;2023-04-24T03:34:12;11.40;59.60
76263;DHT22;65080;50.908;6.916;2023-04-24T03:36:40;11.30;59.40
76263;DHT22;65080;50.908;6.916;2023-04-24T03:39:08;11.30;59.40
76263;DHT22;65080;50.908;6.916;2023-04-24T03:41:38;11.30;59.40
76263;DHT22;65080;50.908;6.916;2023-04-24T03:44:06;11.30;59.30
76263;DHT22;65080;50.908;6.916;2023-04-24T03:46:35;11.30;59.30
76263;DHT22;65080;50.908;6.916;2023-04-24T03:49:03;11.20;59.80
76263;DHT22;65080;50.908;6.916;2023-04-24T03:51:31;11.20;59.40
76263;DHT22;65080;50.908;6.916;2023-04-24T03:53:59;11.20;59.40
76263;DHT22;65080;50.908;6.916;2023-04-24T03:56:28;11.20;59.40
76263;DHT22;65080;50.908;6.916;2023-04-24T03:58:58;11.20;59.40
76263;DHT22;65080;50.908;6.916;2023-04-24T04:01:26;11.20;59.40
76263;DHT22;65080;50.908;6.916;2023-04-24T04:03:55;11.30;59.50
76263;DHT22;65080;50.908;6.916;2023-04-24T04:06:23;11.20;59.30
76263;DHT22;65080;50.908;6.916;2023-04-24T04:08:51;11.20;59.30
76263;DHT22;65080;50.908;6.916;2023-04-24T04:11:20;11.20;59.30
76263;DHT22;65080;50.908;6.916;2023-04-24T04:13:48;11.30;59.40
76263;DHT22;65080;50.908;6.916;2023-04-24T04:16:18;11.30;59.40
76263;DHT22;65080;50.908;6.916;2023-04-24T04:18:46;11.30;59.40
76263;DHT22;65080;50.908;6.916;2023-04-24T04:21:14;11.40;59.40
76263;DHT22;65080;50.908;6.916;2023-04-24T04:23:43;11.50;59.40
76263;DHT22;65080;50.908;6.916;2023-04-24T04:26:11;11.50;59.20
76263;DHT22;65080;50.908;6.916;2023-04-24T04:28:40;11.50;59.20
76263;DHT22;65080;50.908;6.916;2023-04-24T04:31:08;11.50;59.30
76263;DHT22;65080;50.908;6.916;2023-04-24T04:33:38;11.50;59.40
76263;DHT22;65080;50.908;6.916;2023-04-24T04:36:06;11.50;59.30
76263;DHT22;65080;50.908;6.916;2023-04-24T04:38:35;11.60;59.30
76263;DHT22;65080;50.908;6.916;2023-04-24T04:41:04;11.40;59.10
76263;DHT22;65080;50.908;6.916;2023-04-24T04:43:32;11.50;59.20
76263;DHT22;65080;50.908;6.916;2023-04-24T04:46:01;11.50;59.50
76263;DHT22;65080;50.908;6.916;2023-04-24T04:48:30;11.50;59.40
76263;DHT22;65080;50.908;6.916;2023-04-24T04:51:00;11.60;59.50
76263;DHT22;65080;50.908;6.916;2023-04-24T04:53:29;11.60;59.50
76263;DHT22;65080;50.908;6.916;2023-04-24T04:56:00;11.70;59.60
76263;DHT22;65080;50.908;6.916;2023-04-24T04:58:28;11.70;59.60
76263;DHT22;65080;50.908;6.916;2023-04-24T05:00:56;11.60;59.50
76263;DHT22;65080;50.908;6.916;2023-04-24T05:03:25;11.60;59.50
76263;DHT22;65080;50.908;6.916;2023-04-24T05:05:53;11.60;59.60
76263;DHT22;65080;50.908;6.916;2023-04-24T05:08:23;11.60;59.70
76263;DHT22;65080;50.908;6.916;2023-04-24T05:10:53;11.60;59.70
76263;DHT22;65080;50.908;6.916;2023-04-24T05:13:22;11.70;59.80
76263;DHT22;65080;50.908;6.916;2023-04-24T05:16:06;11.60;59.70
76263;DHT22;65080;50.908;6.916;2023-04-24T05:18:34;11.60;59.70
76263;DHT22;65080;50.908;6.916;2023-04-24T05:21:02;11.60;59.70
76263;DHT22;65080;50.908;6.916;2023-04-24T05:23:32;11.70;59.80
76263;DHT22;65080;50.908;6.916;2023-04-24T05:26:01;11.70;59.90
76263;DHT22;65080;50.908;6.916;2023-04-24T05:28:32;11.70;59.80
76263;DHT22;65080;50.908;6.916;2023-04-24T05:31:00;11.80;59.90
76263;DHT22;65080;50.908;6.916;2023-04-24T05:33:29;11.80;60.00
76263;DHT22;65080;50.908;6.916;2023-04-24T05:35:57;11.80;60.00
76263;DHT22;65080;50.908;6.916;2023-04-24T05:38:26;11.80;59.90
76263;DHT22;65080;50.908;6.916;2023-04-24T05:40:55;11.80;60.00
76263;DHT22;65080;50.908;6.916;2023-04-24T05:43:24;11.80;59.90
76263;DHT22;65080;50.908;6.916;2023-04-24T05:45:52;11.80;59.90
76263;DHT22;65080;50.908;6.916;2023-04-24T05:48:22;11.80;60.10
76263;DHT22;65080;50.908;6.916;2023-04-24T05:50:50;11.80;60.20
76263;DHT22;65080;50.908;6.916;2023-04-24T05:53:19;11.80;60.20
76263;DHT22;65080;50.908;6.916;2023-04-24T05:55:48;11.80;60.10
76263;DHT22;65080;50.908;6.916;2023-04-24T05:58:18;11.80;60.20
76263;DHT22;65080;50.908;6.916;2023-04-24T06:00:46;11.80;60.00
76263;DHT22;65080;50.908;6.916;2023-04-24T06:03:14;11.80;60.00
76263;DHT22;65080;50.908;6.916;2023-04-24T06:05:43;11.70;60.00
76263;DHT22;65080;50.908;6.916;2023-04-24T06:08:11;11.80;60.20
76263;DHT22;65080;50.908;6.916;2023-04-24T06:10:40;11.70;60.10
76263;DHT22;65080;50.908;6.916;2023-04-24T06:13:08;11.70;60.30
76263;DHT22;65080;50.908;6.916;2023-04-24T06:15:39;11.60;60.60
76263;DHT22;65080;50.908;6.916;2023-04-24T06:18:08;11.60;60.70
76263;DHT22;65080;50.908;6.916;2023-04-24T06:20:37;11.50;60.70
76263;DHT22;65080;50.908;6.916;2023-04-24T06:23:05;11.40;60.90
76263;DHT22;65080;50.908;6.916;2023-04-24T06:25:33;11.30;61.10
76263;DHT22;65080;50.908;6.916;2023-04-24T06:28:02;11.20;61.40
76263;DHT22;65080;50.908;6.916;2023-04-24T06:30:30;11.20;61.90
76263;DHT22;65080;50.908;6.916;2023-04-24T06:33:00;11.10;62.00
76263;DHT22;65080;50.908;6.916;2023-04-24T06:35:45;11.00;62.30
76263;DHT22;65080;50.908;6.916;2023-04-24T06:38:14;11.00;62.80
76263;DHT22;65080;50.908;6.916;2023-04-24T06:40:43;10.90;63.10
76263;DHT22;65080;50.908;6.916;2023-04-24T06:43:11;10.80;63.90
76263;DHT22;65080;50.908;6.916;2023-04-24T06:45:39;10.60;64.50
76263;DHT22;65080;50.908;6.916;2023-04-24T06:48:09;10.50;65.20
76263;DHT22;65080;50.908;6.916;2023-04-24T06:50:38;10.30;66.10
76263;DHT22;65080;50.908;6.916;2023-04-24T06:53:06;10.10;67.00
76263;DHT22;65080;50.908;6.916;2023-04-24T06:55:36;10.10;68.00
76263;DHT22;65080;50.908;6.916;2023-04-24T06:58:04;10.00;68.80
76263;DHT22;65080;50.908;6.916;2023-04-24T07:00:33;10.00;69.40
76263;DHT22;65080;50.908;6.916;2023-04-24T07:03:01;10.00;70.00
76263;DHT22;65080;50.908;6.916;2023-04-24T07:05:32;9.90;71.40
76263;DHT22;65080;50.908;6.916;2023-04-24T07:08:03;9.90;72.20
76263;DHT22;65080;50.908;6.916;2023-04-24T07:10:32;9.90;72.60
76263;DHT22;65080;50.908;6.916;2023-04-24T07:13:02;9.80;72.80
76263;DHT22;65080;50.908;6.916;2023-04-24T07:15:31;9.80;73.20
76263;DHT22;65080;50.908;6.916;2023-04-24T07:18:00;9.80;73.70
76263;DHT22;65080;50.908;6.916;2023-04-24T07:20:33;9.70;74.10
76263;DHT22;65080;50.908;6.916;2023-04-24T07:23:02;9.60;74.60
76263;DHT22;65080;50.908;6.916;2023-04-24T07:25:30;9.60;75.00
76263;DHT22;65080;50.908;6.916;2023-04-24T07:27:59;9.60;75.50
76263;DHT22;65080;50.908;6.916;2023-04-24T07:30:28;9.50;76.20
76263;DHT22;65080;50.908;6.916;2023-04-24T07:32:56;9.60;76.70
76263;DHT22;65080;50.908;6.916;2023-04-24T07:35:25;9.50;76.80
76263;DHT22;65080;50.908;6.916;2023-04-24T07:37:55;9.50;77.00
76263;DHT22;65080;50.908;6.916;2023-04-24T07:40:23;9.40;77.20
76263;DHT22;65080;50.908;6.916;2023-04-24T07:42:51;9.30;77.30
76263;DHT22;65080;50.908;6.916;2023-04-24T07:45:20;9.30;77.60
76263;DHT22;65080;50.908;6.916;2023-04-24T07:47:50;9.20;77.80
76263;DHT22;65080;50.908;6.916;2023-04-24T07:50:19;9.10;77.70
76263;DHT22;65080;50.908;6.916;2023-04-24T07:52:48;8.90;77.80
76263;DHT22;65080;50.908;6.916;2023-04-24T07:55:17;8.80;78.40
76263;DHT22;65080;50.908;6.916;2023-04-24T07:57:49;8.80;78.90
76263;DHT22;65080;50.908;6.916;2023-04-24T08:00:18;8.70;79.50
76263;DHT22;65080;50.908;6.916;2023-04-24T08:02:48;8.70;79.90
76263;DHT22;65080;50.908;6.916;2023-04-24T08:05:16;8.60;80.20
76263;DHT22;65080;50.908;6.916;2023-04-24T08:07:45;8.50;80.40
76263;DHT22;65080;50.908;6.916;2023-04-24T08:10:17;8.50;80.80
76263;DHT22;65080;50.908;6.916;2023-04-24T08:12:45;8.50;81.10
76263;DHT22;65080;50.908;6.916;2023-04-24T08:15:13;8.40;81.30
76263;DHT22;65080;50.908;6.916;2023-04-24T08:17:42;8.30;81.80
76263;DHT22;65080;50.908;6.916;2023-04-24T08:20:11;8.30;82.10
76263;DHT22;65080;50.908;6.916;2023-04-24T08:22:41;8.30;82.50
76263;DHT22;65080;50.908;6.916;2023-04-24T08:25:11;8.20;82.90
76263;DHT22;65080;50.908;6.916;2023-04-24T08:27:40;8.20;83.10
76263;DHT22;65080;50.908;6.916;2023-04-24T08:30:10;8.20;83.30
76263;DHT22;65080;50.908;6.916;2023-04-24T08:32:38;8.10;83.50
76263;DHT22;65080;50.908;6.916;2023-04-24T08:35:07;8.10;83.70
76263;DHT22;65080;50.908;6.916;2023-04-24T08:37:37;8.00;83.70
76263;DHT22;65080;50.908;6.916;2023-04-24T08:40:12;7.90;83.70
76263;DHT22;65080;50.908;6.916;2023-04-24T08:42:43;7.80;83.80
76263;DHT22;65080;50.908;6.916;2023-04-24T08:45:13;7.70;83.80
76263;DHT22;65080;50.908;6.916;2023-04-24T08:47:41;7.70;84.20
76263;DHT22;65080;50.908;6.916;2023-04-24T08:50:11;7.60;84.70
76263;DHT22;65080;50.908;6.916;2023-04-24T08:52:40;7.70;84.80
76263;DHT22;65080;50.908;6.916;2023-04-24T08:55:09;7.60;84.80
76263;DHT22;65080;50.908;6.916;2023-04-24T08:57:38;7.60;85.20
76263;DHT22;65080;50.908;6.916;2023-04-24T09:00:11;7.70;85.70
76263;DHT22;65080;50.908;6.916;2023-04-24T09:02:41;7.70;85.90
76263;DHT22;65080;50.908;6.916;2023-04-24T09:05:12;7.70;86.20
76263;DHT22;65080;50.908;6.916;2023-04-24T09:07:43;7.80;86.50
76263;DHT22;65080;50.908;6.916;2023-04-24T09:10:13;7.80;86.60
76263;DHT22;65080;50.908;6.916;2023-04-24T09:12:42;7.80;86.70
76263;DHT22;65080;50.908;6.916;2023-04-24T09:15:13;7.90;87.10
76263;DHT22;65080;50.908;6.916;2023-04-24T09:17:42;7.90;87.30
76263;DHT22;65080;50.908;6.916;2023-04-24T09:20:11;7.90;87.50
76263;DHT22;65080;50.908;6.916;2023-04-24T09:22:40;8.00;87.70
76263;DHT22;65080;50.908;6.916;2023-04-24T09:25:09;8.00;87.90
76263;DHT22;65080;50.908;6.916;2023-04-24T09:27:43;8.10;88.20
76263;DHT22;65080;50.908;6.916;2023-04-24T09:30:14;8.20;88.50
76263;DHT22;65080;50.908;6.916;2023-04-24T09:32:48;8.20;88.50
76263;DHT22;65080;50.908;6.916;2023-04-24T09:35:17;8.30;88.90
76263;DHT22;65080;50.908;6.916;2023-04-24T09:37:46;8.40;89.00
76263;DHT22;65080;50.908;6.916;2023-04-24T09:40:17;8.40;89.00
76263;DHT22;65080;50.908;6.916;2023-04-24T09:42:51;8.50;89.10
76263;DHT22;65080;50.908;6.916;2023-04-24T09:45:21;8.50;89.20
76263;DHT22;65080;50.908;6.916;2023-04-24T09:47:52;8.60;89.60
76263;DHT22;65080;50.908;6.916;2023-04-24T09:50:21;8.60;89.60
76263;DHT22;65080;50.908;6.916;2023-04-24T09:52:57;8.70;90.10
76263;DHT22;65080;50.908;6.916;2023-04-24T09:55:25;8.70;90.10
76263;DHT22;65080;50.908;6.916;2023-04-24T09:57:56;8.80;90.10
76263;DHT22;65080;50.908;6.916;2023-04-24T10:00:27;8.90;90.20
76263;DHT22;65080;50.908;6.916;2023-04-24T10:02:57;9.00;90.30
76263;DHT22;65080;50.908;6.916;2023-04-24T10:05:29;9.00;90.20
76263;DHT22;65080;50.908;6.916;2023-04-24T10:08:01;9.00;90.20
76263;DHT22;65080;50.908;6.916;2023-04-24T10:10:30;9.10;90.30
76263;DHT22;65080;50.908;6.916;2023-04-24T10:12:59;9.10;90.40
76263;DHT22;65080;50.908;6.916;2023-04-24T10:15:30;9.20;90.30
76263;DHT22;65080;50.908;6.916;2023-04-24T10:17:59;9.20;90.40
76263;DHT22;65080;50.908;6.916;2023-04-24T10:20:29;9.30;90.40
76263;DHT22;65080;50.908;6.916;2023-04-24T10:22:59;9.30;90.40
76263;DHT22;65080;50.908;6.916;2023-04-24T10:25:28;9.40;90.30
76263;DHT22;65080;50.908;6.916;2023-04-24T10:27:58;9.40;90.30
76263;DHT22;65080;50.908;6.916;2023-04-24T10:30:29;9.50;90.40
76263;DHT22;65080;50.908;6.916;2023-04-24T10:33:02;9.50;90.50
76263;DHT22;65080;50.908;6.916;2023-04-24T10:35:32;9.60;90.40
76263;DHT22;65080;50.908;6.916;2023-04-24T10:38:05;9.60;90.40
76263;DHT22;65080;50.908;6.916;2023-04-24T10:40:34;9.60;90.30
76263;DHT22;65080;50.908;6.916;2023-04-24T10:43:03;9.70;90.30
76263;DHT22;65080;50.908;6.916;2023-04-24T10:45:34;9.70;90.50
76263;DHT22;65080;50.908;6.916;2023-04-24T10:48:04;9.80;90.60
76263;DHT22;65080;50.908;6.916;2023-04-24T10:50:45;9.80;90.50
76263;DHT22;65080;50.908;6.916;2023-04-24T10:53:16;10.00;90.20
76263;DHT22;65080;50.908;6.916;2023-04-24T10:55:47;10.10;90.00
76263;DHT22;65080;50.908;6.916;2023-04-24T10:58:16;10.10;90.00
76263;DHT22;65080;50.908;6.916;2023-04-24T11:00:56;10.20;90.00
76263;DHT22;65080;50.908;6.916;2023-04-24T11:03:27;10.20;89.40
76263;DHT22;65080;50.908;6.916;2023-04-24T11:05:58;10.30;89.10
76263;DHT22;65080;50.908;6.916;2023-04-24T11:08:31;10.30;88.50
76263;DHT22;65080;50.908;6.916;2023-04-24T11:11:08;10.30;88.30
76263;DHT22;65080;50.908;6.916;2023-04-24T11:14:05;10.30;88.10
76263;DHT22;65080;50.908;6.916;2023-04-24T11:16:43;10.30;87.70
76263;DHT22;65080;50.908;6.916;2023-04-24T11:19:22;10.30;87.90
76263;DHT22;65080;50.908;6.916;2023-04-24T11:21:57;10.40;87.70
76263;DHT22;65080;50.908;6.916;2023-04-24T11:24:29;10.40;87.70
76263;DHT22;65080;50.908;6.916;2023-04-24T11:27:00;10.40;88.10
76263;DHT22;65080;50.908;6.916;2023-04-24T11:29:39;10.50;88.10
76263;DHT22;65080;50.908;6.916;2023-04-24T11:32:17;10.50;87.40
76263;DHT22;65080;50.908;6.916;2023-04-24T11:34:48;10.50;87.20
76263;DHT22;65080;50.908;6.916;2023-04-24T11:37:16;10.50;87.20
76263;DHT22;65080;50.908;6.916;2023-04-24T11:39:45;10.50;87.20
76263;DHT22;65080;50.908;6.916;2023-04-24T11:42:15;10.50;87.40
76263;DHT22;65080;50.908;6.916;2023-04-24T11:44:43;10.50;87.70
76263;DHT22;65080;50.908;6.916;2023-04-24T11:47:15;10.50;88.00
76263;DHT22;65080;50.908;6.916;2023-04-24T11:49:44;10.60;88.00
76263;DHT22;65080;50.908;6.916;2023-04-24T11:52:15;10.80;88.00
76263;DHT22;65080;50.908;6.916;2023-04-24T11:54:48;10.70;87.70
76263;DHT22;65080;50.908;6.916;2023-04-24T11:57:19;10.80;87.70
76263;DHT22;65080;50.908;6.916;2023-04-24T11:59:49;10.80;87.10
76263;DHT22;65080;50.908;6.916;2023-04-24T12:02:22;10.90;87.10
76263;DHT22;65080;50.908;6.916;2023-04-24T12:04:52;11.00;87.20
76263;DHT22;65080;50.908;6.916;2023-04-24T12:07:22;11.10;87.30
76263;DHT22;65080;50.908;6.916;2023-04-24T12:09:56;11.30;87.20
76263;DHT22;65080;50.908;6.916;2023-04-24T12:12:26;11.50;86.90
76263;DHT22;65080;50.908;6.916;2023-04-24T12:14:56;11.60;85.90
76263;DHT22;65080;50.908;6.916;2023-04-24T12:17:28;11.70;85.00
76263;DHT22;65080;50.908;6.916;2023-04-24T12:19:58;11.80;84.40
76263;DHT22;65080;50.908;6.916;2023-04-24T12:22:28;11.90;83.90
76263;DHT22;65080;50.908;6.916;2023-04-24T12:25:01;11.90;83.10
76263;DHT22;65080;50.908;6.916;2023-04-24T12:27:31;11.90;81.80
76263;DHT22;65080;50.908;6.916;2023-04-24T12:30:01;11.90;80.90
76263;DHT22;65080;50.908;6.916;2023-04-24T12:32:33;11.90;80.40
76263;DHT22;65080;50.908;6.916;2023-04-24T12:35:04;11.90;80.10
76263;DHT22;65080;50.908;6.916;2023-04-24T12:37:34;11.90;80.00
76263;DHT22;65080;50.908;6.916;2023-04-24T12:40:05;12.00;79.60
76263;DHT22;65080;50.908;6.916;2023-04-24T12:42:36;12.10;79.80
76263;DHT22;65080;50.908;6.916;2023-04-24T12:45:06;12.20;79.50
76263;DHT22;65080;50.908;6.916;2023-04-24T12:47:36;12.40;78.50
76263;DHT22;65080;50.908;6.916;2023-04-24T12:50:05;12.60;77.30
76263;DHT22;65080;50.908;6.916;2023-04-24T12:52:34;12.60;76.10
76263;DHT22;65080;50.908;6.916;2023-04-24T12:55:03;12.60;75.40
76263;DHT22;65080;50.908;6.916;2023-04-24T12:57:31;12.70;75.40
76263;DHT22;65080;50.908;6.916;2023-04-24T13:00:01;12.80;74.70
76263;DHT22;65080;50.908;6.916;2023-04-24T13:02:30;12.80;73.50
76263;DHT22;65080;50.908;6.916;2023-04-24T13:05:00;12.90;72.80
76263;DHT22;65080;50.908;6.916;2023-04-24T13:07:29;13.00;72.30
76263;DHT22;65080;50.908;6.916;2023-04-24T13:09:57;13.20;72.30
76263;DHT22;65080;50.908;6.916;2023-04-24T13:12:25;13.40;71.80
76263;DHT22;65080;50.908;6.916;2023-04-24T13:14:54;13.60;70.60
76263;DHT22;65080;50.908;6.916;2023-04-24T13:17:22;13.70;69.30
76263;DHT22;65080;50.908;6.916;2023-04-24T13:19:51;13.80;68.20
76263;DHT22;65080;50.908;6.916;2023-04-24T13:22:21;14.00;68.00
76263;DHT22;65080;50.908;6.916;2023-04-24T13:24:49;14.10;66.50
76263;DHT22;65080;50.908;6.916;2023-04-24T13:27:18;14.10;65.20
76263;DHT22;65080;50.908;6.916;2023-04-24T13:29:46;14.10;64.00
76263;DHT22;65080;50.908;6.916;2023-04-24T13:32:15;14.00;63.10
76263;DHT22;65080;50.908;6.916;2023-04-24T13:34:43;14.00;62.50
76263;DHT22;65080;50.908;6.916;2023-04-24T13:37:12;14.20;62.30
76263;DHT22;65080;50.908;6.916;2023-04-24T13:39:41;14.50;61.40
76263;DHT22;65080;50.908;6.916;2023-04-24T13:42:09;14.80;60.20
76263;DHT22;65080;50.908;6.916;2023-04-24T13:44:38;15.10;59.60
76263;DHT22;65080;50.908;6.916;2023-04-24T13:47:06;15.50;59.10
76263;DHT22;65080;50.908;6.916;2023-04-24T13:49:34;15.70;58.00
76263;DHT22;65080;50.908;6.916;2023-04-24T13:52:03;15.70;57.00
76263;DHT22;65080;50.908;6.916;2023-04-24T13:54:31;15.40;56.50
76263;DHT22;65080;50.908;6.916;2023-04-24T13:57:01;15.20;56.60
76263;DHT22;65080;50.908;6.916;2023-04-24T13:59:30;15.10;56.80
76263;DHT22;65080;50.908;6.916;2023-04-24T14:01:58;15.00;56.80
76263;DHT22;65080;50.908;6.916;2023-04-24T14:04:26;14.70;56.40
76263;DHT22;65080;50.908;6.916;2023-04-24T14:06:55;14.70;56.40
76263;DHT22;65080;50.908;6.916;2023-04-24T14:09:23;14.90;56.20
76263;DHT22;65080;50.908;6.916;2023-04-24T14:11:52;14.90;55.40
76263;DHT22;65080;50.908;6.916;2023-04-24T14:14:21;14.80;55.00
76263;DHT22;65080;50.908;6.916;2023-04-24T14:16:50;14.70;55.10
76263;DHT22;65080;50.908;6.916;2023-04-24T14:19:18;14.60;55.40
76263;DHT22;65080;50.908;6.916;2023-04-24T14:21:47;14.50;55.50
76263;DHT22;65080;50.908;6.916;2023-04-24T14:24:15;14.50;55.60
76263;DHT22;65080;50.908;6.916;2023-04-24T14:26:43;14.30;55.60
76263;DHT22;65080;50.908;6.916;2023-04-24T14:29:11;14.30;55.80
76263;DHT22;65080;50.908;6.916;2023-04-24T14:31:43;14.20;55.80
76263;DHT22;65080;50.908;6.916;2023-04-24T14:34:12;14.50;56.10
76263;DHT22;65080;50.908;6.916;2023-04-24T14:36:41;15.00;55.80
76263;DHT22;65080;50.908;6.916;2023-04-24T14:39:10;15.60;55.20
76263;DHT22;65080;50.908;6.916;2023-04-24T14:41:39;16.20;54.70
76263;DHT22;65080;50.908;6.916;2023-04-24T14:44:07;16.60;53.70
76263;DHT22;65080;50.908;6.916;2023-04-24T14:46:36;17.00;53.20
76263;DHT22;65080;50.908;6.916;2023-04-24T14:49:05;17.20;52.10
76263;DHT22;65080;50.908;6.916;2023-04-24T14:51:36;17.40;51.50
76263;DHT22;65080;50.908;6.916;2023-04-24T14:54:04;17.40;51.00
76263;DHT22;65080;50.908;6.916;2023-04-24T14:56:33;17.40;51.60
76263;DHT22;65080;50.908;6.916;2023-04-24T14:59:01;17.40;50.80
76263;DHT22;65080;50.908;6.916;2023-04-24T15:01:30;17.60;50.60
76263;DHT22;65080;50.908;6.916;2023-04-24T15:03:59;17.80;50.60
76263;DHT22;65080;50.908;6.916;2023-04-24T15:06:29;17.90;49.40
76263;DHT22;65080;50.908;6.916;2023-04-24T15:08:58;17.80;49.00
76263;DHT22;65080;50.908;6.916;2023-04-24T15:11:27;17.60;49.10
76263;DHT22;65080;50.908;6.916;2023-04-24T15:13:55;17.50;48.90
76263;DHT22;65080;50.908;6.916;2023-04-24T15:16:24;17.60;48.40
76263;DHT22;65080;50.908;6.916;2023-04-24T15:18:53;17.40;48.10
76263;DHT22;65080;50.908;6.916;2023-04-24T15:21:21;17.20;48.10
76263;DHT22;65080;50.908;6.916;2023-04-24T15:23:50;16.90;48.10
76263;DHT22;65080;50.908;6.916;2023-04-24T15:26:19;16.90;48.20
76263;DHT22;65080;50.908;6.916;2023-04-24T15:28:47;17.10;48.40
76263;DHT22;65080;50.908;6.916;2023-04-24T15:31:15;17.40;48.20
76263;DHT22;65080;50.908;6.916;2023-04-24T15:33:44;17.60;47.90
76263;DHT22;65080;50.908;6.916;2023-04-24T15:36:13;17.40;47.60
76263;DHT22;65080;50.908;6.916;2023-04-24T15:38:42;17.20;47.70
76263;DHT22;65080;50.908;6.916;2023-04-24T15:41:12;17.10;47.90
76263;DHT22;65080;50.908;6.916;2023-04-24T15:43:40;16.80;47.80
76263;DHT22;65080;50.908;6.916;2023-04-24T15:46:09;16.80;48.10
76263;DHT22;65080;50.908;6.916;2023-04-24T15:48:38;17.00;48.10